DeKalb Peachtree Airport
KPDK : now visible

Airfield :











YOU CAN JOIN US ON...

 
LOGIN :

Register | Disclaimer

   EN    FR    IT 

 









Legend :    VFR   Marginal VFR   IFR   Intensive IFR   Very Intensive IFR
Visi :
Ceiling :
>= 8 km
>= 3000ft
5 to 8 km
1000 to 3000 ft
1500m to 5 km
500 to 1000 ft
800 to 1500m
200 to 500 ft
< 800m
< 200 ft
Symbols :   Thunderstorms  Fog  Heavy snow  Heavy precipitations  Wind > 20 kt






- Airport Elevation : 1003 ft


KPDK - DeKalb Peachtree

CURRENT METAR :
  • 150653Z AUTO 00000KT 8SM FEW038 03/02 A2996 RMK AO2 SLP154 T00330022

EXPIRED METARs :
  • 150553Z AUTO 25004KT 10SM CLR 04/03 A2996 RMK AO2 SLP154 T00390028 10078 20022 51013
  • 150453Z AUTO 25003KT 10SM CLR 06/03 A2995 RMK AO2 SLP149 T00560028 401110039

TAF KPDK
Valid from the 15 at 06:00 until the 16 at 06:00 UTC


150541Z 1506/1606 25003KT P6SM FEW045 BKN150
TEMPO 1510/1514 BKN025
FM151500 26003KT P6SM BKN015
FM151700 21005KT P6SM SCT015 BKN035
FM151900 20005KT P6SM BKN050



MET'MAP, your aeronautical weather chart ! - Copyright ORBIFLY December 2007 - Disclaimer

ORBIFLY MET'MAP TEAM :

Programming & Development : Alexandra Zaïnal
Concept & original design : Baudouin d'Aumeries
Assistance for programming : Marc-Olivier Méhu
Technical & hardware support : Manuel Goepfert

Contact : metmap@orbifly.com




SOURCES & CREDITS :

   NOAA       Earth
Advisory